Time;durP1;ratioP1;P1;durP2;ratioP2;P2;SDS_P1;SDS_P2;PMS_P1;PMS_P2;Temp;Humidity;BMP_temperature;BMP_pressure;BME280_temperature;BME280_humidity;BME280_pressure;Samples;Min_cycle;Max_cycle;Signal;HPM_P1;HPM_P2
2021/04/28 00:01:33;;;;;;;15.20;8.60;;;9.50;85.20;;;;;;5005980;28;20190;-65
2021/04/28 00:03:58;;;;;;;8.67;7.73;;;9.50;86.90;;;;;;5007190;28;20458;-65
2021/04/28 00:06:24;;;;;;;9.30;7.63;;;9.50;89.40;;;;;;5007225;28;20206;-65
2021/04/28 00:08:49;;;;;;;9.23;7.50;;;9.50;88.60;;;;;;5004420;28;20250;-65
2021/04/28 00:11:15;;;;;;;11.80;8.33;;;9.40;90.30;;;;;;5000164;28;20675;-65
2021/04/28 00:13:41;;;;;;;9.87;7.33;;;9.40;91.00;;;;;;5009822;28;20179;-65
2021/04/28 00:16:06;;;;;;;8.93;8.03;;;9.40;90.50;;;;;;5002034;28;20174;-65
2021/04/28 00:18:32;;;;;;;11.53;9.27;;;9.40;88.00;;;;;;5010441;28;20171;-65
2021/04/28 00:20:57;;;;;;;11.63;8.70;;;9.40;90.60;;;;;;5009439;28;20465;-66
2021/04/28 00:23:23;;;;;;;10.13;7.97;;;9.30;91.20;;;;;;5010192;28;20274;-65
2021/04/28 00:25:49;;;;;;;11.00;8.53;;;9.30;90.40;;;;;;4994479;28;20211;-65
2021/04/28 00:28:15;;;;;;;9.27;8.27;;;9.30;92.10;;;;;;5009703;28;20174;-65
2021/04/28 00:30:40;;;;;;;10.90;8.00;;;9.20;91.40;;;;;;5006456;28;20179;-65
2021/04/28 00:33:07;;;;;;;13.13;7.50;;;9.20;91.80;;;;;;5006221;28;20171;-65
2021/04/28 00:35:33;;;;;;;12.23;8.63;;;9.20;92.40;;;;;;5009888;28;20174;-65
2021/04/28 00:37:58;;;;;;;10.03;8.20;;;9.10;93.00;;;;;;4993607;28;20427;-65
2021/04/28 00:40:32;;;;;;;11.70;8.20;;;9.10;92.10;;;;;;5007057;28;20194;-65
2021/04/28 00:42:59;;;;;;;8.77;7.90;;;9.10;92.40;;;;;;5009979;28;20171;-65
2021/04/28 00:45:25;;;;;;;11.90;9.07;;;9.10;92.30;;;;;;4996516;28;20474;-65
2021/04/28 00:47:53;;;;;;;9.93;8.90;;;9.10;91.50;;;;;;5008103;28;20863;-65
2021/04/28 00:50:27;;;;;;;11.70;7.90;;;9.10;93.50;;;;;;5009383;28;20564;-65
2021/04/28 00:52:53;;;;;;;9.70;8.70;;;9.00;92.00;;;;;;5003102;28;21181;-65
2021/04/28 00:55:19;;;;;;;14.40;8.30;;;9.00;94.00;;;;;;5002789;28;20974;-65
2021/04/28 00:57:45;;;;;;;9.33;8.43;;;9.10;91.80;;;;;;4999084;28;20434;-65
2021/04/28 01:00:15;;;;;;;9.70;7.70;;;9.10;92.20;;;;;;5009415;28;20299;-65
2021/04/28 01:02:41;;;;;;;10.00;7.93;;;9.00;94.00;;;;;;4995866;28;20622;-66
2021/04/28 01:05:08;;;;;;;11.80;8.43;;;9.00;93.40;;;;;;5008581;28;20504;-65
2021/04/28 01:07:34;;;;;;;9.70;8.70;;;9.00;93.10;;;;;;5009199;28;20437;-65
2021/04/28 01:10:03;;;;;;;11.07;8.30;;;9.00;94.80;;;;;;5010942;28;20433;-65
2021/04/28 01:12:30;;;;;;;12.83;9.20;;;9.00;95.60;;;;;;5012519;28;20489;-65
2021/04/28 01:14:56;;;;;;;12.57;9.20;;;8.90;95.30;;;;;;5013482;28;20467;-65
2021/04/28 01:17:22;;;;;;;9.33;8.43;;;8.90;93.60;;;;;;5012927;28;20440;-65
2021/04/28 01:19:47;;;;;;;12.33;8.00;;;8.90;92.70;;;;;;4999450;28;20194;-65
2021/04/28 01:22:14;;;;;;;12.97;8.93;;;8.90;94.60;;;;;;5003567;28;20200;-66
2021/04/28 01:24:40;;;;;;;11.90;8.40;;;8.90;93.70;;;;;;5003640;28;20202;-65
2021/04/28 01:27:16;;;;;;;11.63;8.30;;;8.90;95.50;;;;;;5007226;28;20505;-65
2021/04/28 01:29:44;;;;;;;9.93;8.13;;;8.90;94.90;;;;;;5010953;28;20189;-65
2021/04/28 01:32:13;;;;;;;10.03;8.80;;;8.90;94.70;;;;;;5004912;28;20458;-65
2021/04/28 01:34:40;;;;;;;12.43;8.67;;;8.90;93.70;;;;;;4998132;28;20443;-65
2021/04/28 01:37:06;;;;;;;10.67;8.27;;;8.90;94.00;;;;;;5001006;28;20444;-66
2021/04/28 01:39:32;;;;;;;11.90;8.50;;;8.90;92.50;;;;;;5003906;28;20545;-65
2021/04/28 01:41:58;;;;;;;9.90;8.40;;;8.90;93.50;;;;;;5012360;28;20556;-66
2021/04/28 01:44:23;;;;;;;8.67;7.80;;;8.90;92.50;;;;;;5006785;28;20450;-66
2021/04/28 01:46:53;;;;;;;10.37;8.23;;;8.90;92.50;;;;;;5008742;28;20207;-65
2021/04/28 01:49:19;;;;;;;13.60;9.27;;;9.00;91.50;;;;;;5000303;28;20175;-65
2021/04/28 01:51:45;;;;;;;11.40;7.03;;;9.00;92.40;;;;;;5009364;28;20486;-65
2021/04/28 01:54:15;;;;;;;15.03;8.93;;;8.90;92.80;;;;;;5009788;28;20465;-65
2021/04/28 01:56:43;;;;;;;17.30;8.60;;;8.90;96.10;;;;;;4999388;28;20170;-65
2021/04/28 01:59:09;;;;;;;12.07;9.33;;;8.90;96.40;;;;;;5012195;28;20440;-65
2021/04/28 02:01:35;;;;;;;13.60;9.27;;;8.80;97.00;;;;;;5004932;28;20947;-65
2021/04/28 02:04:01;;;;;;;13.73;9.23;;;8.70;96.60;;;;;;5000514;28;20519;-65
2021/04/28 02:06:27;;;;;;;9.90;8.37;;;8.60;98.10;;;;;;5007049;28;20461;-66
2021/04/28 02:08:52;;;;;;;10.13;9.10;;;8.60;98.70;;;;;;5010229;28;20542;-66
2021/04/28 02:11:18;;;;;;;12.90;8.63;;;8.50;99.10;;;;;;5011929;28;20566;-65
2021/04/28 02:13:47;;;;;;;8.27;7.33;;;8.50;98.40;;;;;;5011104;28;20217;-65
2021/04/28 02:16:13;;;;;;;13.63;8.97;;;8.50;98.30;;;;;;5011922;28;20260;-65
2021/04/28 02:18:40;;;;;;;9.27;8.33;;;8.60;98.20;;;;;;4999033;28;20939;-65
2021/04/28 02:21:06;;;;;;;9.00;8.10;;;8.60;98.00;;;;;;5012124;28;20209;-66
2021/04/28 02:23:35;;;;;;;13.37;9.23;;;8.60;98.00;;;;;;5011354;28;20437;-65
2021/04/28 02:26:01;;;;;;;11.03;8.30;;;8.50;99.10;;;;;;5002510;28;20238;-65
2021/04/28 02:28:27;;;;;;;9.37;8.10;;;8.50;99.60;;;;;;5008011;28;20482;-65
2021/04/28 02:30:52;;;;;;;9.00;8.10;;;8.40;99.90;;;;;;5010932;28;20206;-65
2021/04/28 02:33:18;;;;;;;10.00;9.00;;;8.40;99.90;;;;;;5011101;28;20533;-65
2021/04/28 02:35:44;;;;;;;13.63;8.50;;;8.40;99.20;;;;;;4999731;28;20183;-65
2021/04/28 02:38:15;;;;;;;11.13;9.73;;;8.40;98.20;;;;;;5011235;28;20186;-65
2021/04/28 02:40:44;;;;;;;10.87;8.70;;;8.40;97.50;;;;;;5006340;28;20237;-65
2021/04/28 02:43:13;;;;;;;12.90;9.00;;;8.50;99.20;;;;;;4993510;28;20461;-65
2021/04/28 02:45:43;;;;;;;9.83;8.83;;;8.40;99.90;;;;;;5007856;28;20486;-66
2021/04/28 02:48:09;;;;;;;11.00;9.27;;;8.40;99.90;;;;;;5011209;28;20795;-65
2021/04/28 02:50:35;;;;;;;13.03;9.60;;;8.30;99.90;;;;;;5010297;28;20439;-66
2021/04/28 02:53:01;;;;;;;11.50;9.23;;;8.30;99.90;;;;;;4998029;28;20453;-65
2021/04/28 02:55:28;;;;;;;12.73;9.83;;;8.20;99.90;;;;;;4996122;28;20179;-65
2021/04/28 02:57:54;;;;;;;10.83;9.53;;;8.20;99.90;;;;;;5009433;28;20434;-66
2021/04/28 03:00:21;;;;;;;14.33;8.90;;;8.10;99.90;;;;;;5004016;28;20449;-65
2021/04/28 03:02:47;;;;;;;13.00;9.63;;;8.00;99.90;;;;;;5011260;28;20449;-65
2021/04/28 03:05:19;;;;;;;13.67;9.10;;;7.90;99.90;;;;;;5011055;28;22388;-65
2021/04/28 03:07:46;;;;;;;11.23;8.77;;;7.90;99.90;;;;;;5010005;28;20441;-65
2021/04/28 03:10:13;;;;;;;11.23;9.60;;;7.90;99.90;;;;;;5011148;28;20805;-64
2021/04/28 03:12:39;;;;;;;10.47;8.83;;;7.90;99.90;;;;;;4999092;28;20466;-65
2021/04/28 03:15:08;;;;;;;14.20;11.27;;;7.90;99.90;;;;;;4992135;28;20455;-66
2021/04/28 03:17:33;;;;;;;14.07;10.80;;;7.90;99.90;;;;;;5007280;28;20449;-66
2021/04/28 03:20:01;;;;;;;14.70;10.00;;;7.90;99.90;;;;;;4996271;28;20446;-65
2021/04/28 03:22:26;;;;;;;10.30;8.70;;;7.90;99.90;;;;;;5001524;28;20195;-65
2021/04/28 03:24:52;;;;;;;18.23;8.60;;;7.90;99.90;;;;;;5006532;28;20468;-66
2021/04/28 03:27:23;;;;;;;12.90;10.20;;;7.80;99.90;;;;;;5007128;28;20217;-65
2021/04/28 03:29:50;;;;;;;11.10;9.83;;;7.70;99.90;;;;;;5009024;28;20563;-66
2021/04/28 03:32:16;;;;;;;13.53;9.07;;;7.70;99.90;;;;;;5005141;28;20462;-65
2021/04/28 03:34:41;;;;;;;22.63;8.90;;;7.70;99.90;;;;;;4994831;28;20434;-65
2021/04/28 03:37:07;;;;;;;15.57;10.13;;;7.70;99.90;;;;;;5007412;28;20240;-65
2021/04/28 03:39:33;;;;;;;11.97;9.10;;;7.70;99.90;;;;;;5009403;28;20266;-65
2021/04/28 03:41:58;;;;;;;11.90;9.53;;;7.70;99.90;;;;;;4992620;28;20203;-65
2021/04/28 03:44:25;;;;;;;10.83;9.50;;;7.70;99.90;;;;;;5008798;28;20222;-66
2021/04/28 03:46:50;;;;;;;21.17;11.40;;;7.70;99.90;;;;;;5010821;28;20218;-65
2021/04/28 03:49:16;;;;;;;10.50;9.50;;;7.70;99.90;;;;;;5010127;28;20434;-65
2021/04/28 03:51:43;;;;;;;11.70;9.80;;;7.70;99.90;;;;;;5000243;28;20278;-65
2021/04/28 03:54:09;;;;;;;12.43;9.40;;;7.60;99.90;;;;;;5010198;28;20182;-65
2021/04/28 03:56:34;;;;;;;18.67;11.30;;;7.60;99.90;;;;;;5008625;28;20441;-66
2021/04/28 03:59:00;;;;;;;15.60;9.67;;;7.60;99.90;;;;;;5010054;28;20457;-65
2021/04/28 04:01:26;;;;;;;13.20;10.53;;;7.60;99.90;;;;;;5009278;28;20601;-65
2021/04/28 04:03:51;;;;;;;11.73;8.93;;;7.60;99.90;;;;;;4994691;28;20184;-65
2021/04/28 04:06:17;;;;;;;12.13;9.87;;;7.60;99.90;;;;;;5008946;28;20191;-65
2021/04/28 04:08:43;;;;;;;11.33;10.13;;;7.60;99.90;;;;;;5010234;28;20249;-65
2021/04/28 04:11:08;;;;;;;15.20;9.37;;;7.60;99.90;;;;;;5001618;28;20830;-65
2021/04/28 04:13:34;;;;;;;13.33;10.87;;;7.60;99.90;;;;;;5009967;28;20175;-65
2021/04/28 04:16:00;;;;;;;18.53;10.13;;;7.50;99.90;;;;;;5001820;28;20186;-65
2021/04/28 04:18:25;;;;;;;15.17;9.17;;;7.40;99.90;;;;;;5007080;28;20234;-66
2021/04/28 04:20:51;;;;;;;12.23;9.73;;;7.40;99.90;;;;;;4996494;28;20202;-65
2021/04/28 04:23:16;;;;;;;14.80;10.13;;;7.50;99.90;;;;;;5010538;28;20183;-65
2021/04/28 04:25:42;;;;;;;12.60;9.47;;;7.40;99.90;;;;;;5010566;28;20660;-65
2021/04/28 04:28:07;;;;;;;11.33;9.47;;;7.50;99.90;;;;;;5009030;28;20174;-65
2021/04/28 04:30:33;;;;;;;12.07;9.23;;;7.50;99.90;;;;;;4997963;28;20189;-65
2021/04/28 04:32:58;;;;;;;12.90;9.60;;;7.50;99.90;;;;;;5008459;28;20171;-65
2021/04/28 04:35:24;;;;;;;16.03;11.10;;;7.60;99.90;;;;;;5008646;28;20206;-65
2021/04/28 04:37:50;;;;;;;14.67;10.57;;;7.60;99.90;;;;;;5009434;28;20630;-65
2021/04/28 04:40:16;;;;;;;10.77;9.57;;;7.60;99.90;;;;;;4997385;28;20191;-66
2021/04/28 04:42:42;;;;;;;15.40;10.37;;;7.60;99.90;;;;;;4998393;28;20595;-65
2021/04/28 04:45:08;;;;;;;15.27;10.97;;;7.70;99.90;;;;;;5006925;28;20821;-65
2021/04/28 04:47:34;;;;;;;14.13;8.90;;;7.70;99.90;;;;;;5009241;28;20434;-65
2021/04/28 04:49:59;;;;;;;12.57;11.13;;;7.80;99.90;;;;;;5003050;28;20426;-65
2021/04/28 04:52:25;;;;;;;12.10;9.80;;;7.90;99.90;;;;;;5007400;28;20202;-66
2021/04/28 04:54:51;;;;;;;22.63;10.77;;;8.10;99.90;;;;;;5013602;28;20202;-65
2021/04/28 04:57:16;;;;;;;12.50;10.20;;;8.20;99.90;;;;;;5006531;28;20183;-65
2021/04/28 04:59:42;;;;;;;11.20;9.77;;;8.30;99.90;;;;;;5008727;28;20211;-65
2021/04/28 05:02:08;;;;;;;11.70;10.57;;;8.40;99.90;;;;;;4994338;28;20205;-66
2021/04/28 05:04:34;;;;;;;19.67;11.20;;;8.60;99.90;;;;;;5004692;28;20182;-65
2021/04/28 05:07:00;;;;;;;21.30;11.60;;;8.70;99.90;;;;;;5013183;28;20203;-65
2021/04/28 05:09:25;;;;;;;16.90;12.10;;;8.80;99.90;;;;;;4996906;28;20434;-66
2021/04/28 05:11:51;;;;;;;27.27;12.70;;;8.90;99.90;;;;;;5012925;28;20278;-65
2021/04/28 05:14:16;;;;;;;19.57;11.97;;;9.00;99.90;;;;;;5013503;28;20187;-66
2021/04/28 05:16:42;;;;;;;20.73;11.43;;;9.20;99.90;;;;;;5001719;28;20563;-65
2021/04/28 05:19:07;;;;;;;14.93;10.83;;;9.50;99.90;;;;;;4993941;28;20187;-66
2021/04/28 05:21:34;;;;;;;16.20;10.67;;;9.60;99.90;;;;;;5012047;28;20238;-65
2021/04/28 05:24:00;;;;;;;19.37;11.93;;;9.70;99.90;;;;;;5006681;28;20213;-65
2021/04/28 05:26:25;;;;;;;22.27;11.40;;;9.90;99.90;;;;;;5007979;28;20492;-65
2021/04/28 05:28:51;;;;;;;20.00;11.80;;;10.10;99.90;;;;;;4995439;28;20437;-65
2021/04/28 05:31:16;;;;;;;15.80;10.53;;;10.30;99.90;;;;;;4993580;28;20195;-66
2021/04/28 05:33:42;;;;;;;14.43;11.93;;;10.40;99.70;;;;;;5012518;28;20177;-65
2021/04/28 05:36:08;;;;;;;14.60;10.60;;;10.50;99.20;;;;;;5013609;28;20210;-65
2021/04/28 05:38:34;;;;;;;12.23;11.03;;;10.70;98.80;;;;;;5002367;28;20669;-65
2021/04/28 05:41:00;;;;;;;12.50;10.40;;;10.80;99.00;;;;;;5007977;28;20458;-65
2021/04/28 05:43:25;;;;;;;13.97;11.27;;;10.90;98.10;;;;;;5004701;28;20444;-65
2021/04/28 05:45:51;;;;;;;18.77;12.60;;;11.10;96.80;;;;;;5011108;28;20290;-65
2021/04/28 05:48:17;;;;;;;15.83;12.00;;;11.20;97.00;;;;;;5011945;28;20175;-70
2021/04/28 05:50:44;;;;;;;28.90;12.43;;;11.30;95.70;;;;;;4997366;28;20179;-73
2021/04/28 05:53:11;;;;;;;19.03;12.87;;;11.10;95.70;;;;;;5002565;28;20462;-70
2021/04/28 05:55:37;;;;;;;18.80;14.03;;;11.00;95.90;;;;;;5005660;28;20430;-72
2021/04/28 05:58:06;;;;;;;18.53;12.07;;;11.30;96.10;;;;;;4998361;28;20438;-72
2021/04/28 06:00:32;;;;;;;15.47;11.40;;;11.40;95.30;;;;;;4997291;28;20464;-72
2021/04/28 06:02:58;;;;;;;21.13;11.97;;;11.70;95.00;;;;;;5008105;28;20438;-72
2021/04/28 06:05:24;;;;;;;15.77;11.13;;;11.90;94.50;;;;;;5007766;28;20465;-72
2021/04/28 06:07:49;;;;;;;14.57;11.23;;;12.00;93.70;;;;;;5010723;28;20553;-72
2021/04/28 06:10:15;;;;;;;23.73;12.40;;;12.10;93.50;;;;;;5010775;28;20665;-72
2021/04/28 06:12:42;;;;;;;14.13;12.57;;;12.10;93.00;;;;;;5001256;28;20668;-72
2021/04/28 06:15:09;;;;;;;13.83;12.40;;;12.20;93.30;;;;;;5003154;28;20795;-72
2021/04/28 06:17:35;;;;;;;20.53;11.80;;;12.40;92.80;;;;;;5008157;28;20531;-71
2021/04/28 06:20:01;;;;;;;19.57;11.70;;;12.60;92.60;;;;;;4997502;28;20497;-71
2021/04/28 06:22:27;;;;;;;16.57;12.23;;;12.80;92.30;;;;;;4983568;28;20681;-67
2021/04/28 06:24:52;;;;;;;19.20;11.87;;;12.90;91.70;;;;;;5004088;28;20434;-67
2021/04/28 06:27:18;;;;;;;17.10;13.60;;;13.10;91.90;;;;;;5001851;28;20199;-67
2021/04/28 06:29:44;;;;;;;20.10;13.67;;;13.20;91.20;;;;;;4998351;28;20814;-67
2021/04/28 06:32:09;;;;;;;14.23;12.73;;;12.80;90.80;;;;;;5006229;28;20289;-67
2021/04/28 06:34:35;;;;;;;21.17;13.57;;;12.90;91.80;;;;;;5003040;28;20183;-66
2021/04/28 06:37:01;;;;;;;17.90;12.37;;;13.20;91.30;;;;;;5004201;28;20257;-66
2021/04/28 06:39:26;;;;;;;16.47;12.20;;;13.40;90.20;;;;;;5006010;28;20183;-67
2021/04/28 06:41:52;;;;;;;18.70;14.03;;;13.60;89.90;;;;;;4994621;28;20196;-66
2021/04/28 06:44:17;;;;;;;14.57;11.70;;;13.80;89.00;;;;;;5002364;28;20187;-66
2021/04/28 06:46:43;;;;;;;16.43;12.70;;;13.70;87.60;;;;;;5006397;28;20304;-66
2021/04/28 06:49:09;;;;;;;14.17;11.60;;;13.70;87.70;;;;;;5010247;28;20207;-67
2021/04/28 06:51:34;;;;;;;14.10;11.00;;;13.80;87.40;;;;;;5007540;28;20199;-66
2021/04/28 06:54:00;;;;;;;19.20;13.53;;;14.20;87.80;;;;;;5009362;28;20187;-66
2021/04/28 06:56:27;;;;;;;22.50;11.83;;;14.40;86.60;;;;;;5005464;28;20218;-67
2021/04/28 06:58:53;;;;;;;16.07;12.67;;;14.60;86.30;;;;;;5004399;28;20437;-67
2021/04/28 07:01:19;;;;;;;15.30;11.90;;;14.90;83.60;;;;;;5007057;28;20469;-66
2021/04/28 07:03:45;;;;;;;18.10;14.60;;;15.00;82.90;;;;;;5004747;28;20171;-66
2021/04/28 07:06:11;;;;;;;16.00;12.93;;;15.00;80.80;;;;;;5003694;28;20876;-67
2021/04/28 07:08:37;;;;;;;16.00;12.80;;;15.10;79.50;;;;;;4997052;28;20179;-67
2021/04/28 07:11:03;;;;;;;15.37;11.90;;;15.40;78.70;;;;;;4998484;28;20454;-67
2021/04/28 07:13:29;;;;;;;14.40;12.90;;;15.70;77.50;;;;;;5003230;28;20810;-67
2021/04/28 07:15:55;;;;;;;13.67;12.23;;;15.70;75.80;;;;;;5009529;28;20438;-67
2021/04/28 07:18:21;;;;;;;14.40;12.77;;;15.80;75.00;;;;;;4998558;28;20465;-67
2021/04/28 07:20:46;;;;;;;13.43;11.67;;;16.00;74.20;;;;;;4988503;28;20200;-67
2021/04/28 07:23:12;;;;;;;14.97;13.50;;;16.20;73.00;;;;;;4999388;28;20184;-67
2021/04/28 07:25:37;;;;;;;13.47;12.17;;;16.30;71.80;;;;;;5000327;28;20729;-67
2021/04/28 07:28:03;;;;;;;18.33;12.67;;;16.30;72.10;;;;;;5000534;28;20186;-67
2021/04/28 07:30:29;;;;;;;15.23;12.33;;;16.40;71.00;;;;;;5001305;28;20245;-67
2021/04/28 07:32:54;;;;;;;12.77;11.40;;;16.60;70.30;;;;;;5007730;28;20705;-67
2021/04/28 07:35:22;;;;;;;13.40;12.00;;;16.50;69.20;;;;;;5002926;28;20167;-67
2021/04/28 07:37:48;;;;;;;15.47;11.97;;;16.60;70.10;;;;;;5002616;28;20671;-67
2021/04/28 07:40:14;;;;;;;14.83;11.90;;;16.90;68.90;;;;;;5007058;28;20868;-66
2021/04/28 07:42:41;;;;;;;14.17;12.27;;;17.10;68.70;;;;;;5009335;28;20449;-67
2021/04/28 07:45:07;;;;;;;13.57;12.37;;;16.80;67.60;;;;;;5005178;28;20453;-67
2021/04/28 07:47:33;;;;;;;13.73;12.40;;;16.70;68.10;;;;;;4999519;28;20470;-67
2021/04/28 07:49:58;;;;;;;14.03;12.63;;;16.90;68.30;;;;;;4996704;28;20434;-66
2021/04/28 07:52:24;;;;;;;15.43;13.50;;;17.10;67.80;;;;;;4991913;28;20207;-67
2021/04/28 07:54:49;;;;;;;13.53;12.13;;;17.30;66.80;;;;;;5003935;28;20179;-67
2021/04/28 07:57:15;;;;;;;14.67;11.80;;;17.30;66.90;;;;;;5002131;28;20190;-67
2021/04/28 07:59:41;;;;;;;16.53;13.53;;;17.60;66.10;;;;;;4991234;28;20601;-67
2021/04/28 08:02:06;;;;;;;15.23;12.17;;;17.90;66.10;;;;;;5008225;28;20207;-67
2021/04/28 08:04:32;;;;;;;13.30;11.90;;;17.70;65.50;;;;;;4999576;28;20199;-67
2021/04/28 08:06:58;;;;;;;13.97;12.67;;;17.90;65.40;;;;;;5007090;28;20207;-66
2021/04/28 08:09:23;;;;;;;15.40;12.60;;;18.20;64.90;;;;;;5000429;28;20178;-67
2021/04/28 08:11:49;;;;;;;14.77;13.10;;;18.50;64.00;;;;;;5004724;28;20692;-67
2021/04/28 08:14:15;;;;;;;13.07;11.63;;;18.70;62.80;;;;;;4996674;28;20175;-67
2021/04/28 08:16:40;;;;;;;16.73;13.13;;;18.70;63.10;;;;;;5006254;28;20175;-67
2021/04/28 08:19:06;;;;;;;16.73;14.90;;;18.80;62.40;;;;;;5007525;28;20190;-67
2021/04/28 08:21:32;;;;;;;13.97;12.57;;;19.00;62.10;;;;;;5002310;28;20203;-66
2021/04/28 08:23:58;;;;;;;13.70;12.40;;;19.30;61.10;;;;;;5009254;28;20186;-66
2021/04/28 08:26:24;;;;;;;16.17;13.67;;;19.50;59.70;;;;;;5004123;28;20462;-67
2021/04/28 08:28:49;;;;;;;16.20;13.50;;;19.70;59.40;;;;;;4999319;28;20577;-66
2021/04/28 08:31:17;;;;;;;14.63;13.23;;;19.70;59.40;;;;;;4998606;28;20202;-67
2021/04/28 08:33:44;;;;;;;15.77;14.07;;;20.10;58.80;;;;;;5005144;28;20187;-66
2021/04/28 08:36:10;;;;;;;19.80;12.63;;;20.10;58.20;;;;;;5009082;28;20828;-66
2021/04/28 08:38:36;;;;;;;15.63;13.97;;;20.10;57.60;;;;;;5003899;28;20438;-66
2021/04/28 08:41:04;;;;;;;15.10;13.73;;;20.00;57.30;;;;;;4998767;28;20457;-66
2021/04/28 08:43:32;;;;;;;17.80;13.90;;;20.20;57.40;;;;;;4999088;28;20438;-67
2021/04/28 08:45:59;;;;;;;16.83;14.50;;;20.40;58.20;;;;;;5010484;28;20465;-66
2021/04/28 08:48:25;;;;;;;15.83;14.23;;;20.50;57.90;;;;;;5005493;28;20962;-66
2021/04/28 08:50:50;;;;;;;18.13;14.10;;;20.60;57.20;;;;;;4999002;28;20458;-67
2021/04/28 08:53:18;;;;;;;14.97;13.47;;;20.80;56.80;;;;;;5007903;28;20186;-66
2021/04/28 08:55:44;;;;;;;20.33;13.70;;;20.80;56.40;;;;;;5009138;28;20266;-67
2021/04/28 08:58:11;;;;;;;21.63;16.07;;;20.90;56.10;;;;;;4999810;28;20449;-67
2021/04/28 09:00:37;;;;;;;17.60;15.17;;;21.10;55.70;;;;;;5008282;28;20792;-67
2021/04/28 09:03:03;;;;;;;18.17;14.80;;;21.60;54.60;;;;;;5011227;28;20438;-67
2021/04/28 09:05:30;;;;;;;17.63;13.73;;;21.90;54.10;;;;;;5010002;28;20207;-67
2021/04/28 09:07:56;;;;;;;20.27;15.37;;;21.70;53.20;;;;;;5002553;28;20431;-67
2021/04/28 09:10:28;;;;;;;15.57;13.40;;;21.20;53.30;;;;;;5000760;28;20438;-67
2021/04/28 09:12:56;;;;;;;18.40;14.13;;;20.90;53.80;;;;;;5003017;28;20452;-67
2021/04/28 09:15:34;;;;;;;19.50;13.83;;;21.20;52.10;;;;;;5009124;28;20449;-67
2021/04/28 09:17:59;;;;;;;16.07;13.50;;;21.80;50.70;;;;;;5000320;28;20834;-67
2021/04/28 09:20:38;;;;;;;17.33;13.70;;;22.40;50.10;;;;;;5004068;28;20449;-67
2021/04/28 09:23:16;;;;;;;17.60;14.40;;;22.60;49.90;;;;;;5009795;28;20175;-67
2021/04/28 09:25:50;;;;;;;18.70;15.57;;;23.10;51.00;;;;;;5008823;28;20452;-67
2021/04/28 09:28:23;;;;;;;17.63;14.63;;;23.40;49.30;;;;;;5005627;28;20529;-67
2021/04/28 09:30:50;;;;;;;21.27;19.07;;;23.80;48.70;;;;;;5004504;28;20467;-67
2021/04/28 09:33:16;;;;;;;16.27;13.80;;;24.10;49.80;;;;;;5001991;28;20518;-66
2021/04/28 09:35:42;;;;;;;15.80;12.27;;;24.50;48.70;;;;;;5009639;28;20878;-68
2021/04/28 09:38:07;;;;;;;14.00;12.50;;;24.20;48.90;;;;;;5006267;28;20533;-66
2021/04/28 09:40:43;;;;;;;16.37;13.60;;;24.60;46.50;;;;;;5003786;28;20191;-66
2021/04/28 09:43:10;;;;;;;16.80;14.07;;;24.70;44.10;;;;;;5025935;28;20201;-66
2021/04/28 09:45:41;;;;;;;15.80;12.97;;;24.50;46.10;;;;;;5008532;28;20465;-66
2021/04/28 09:48:10;;;;;;;18.30;14.47;;;25.20;44.30;;;;;;5010294;28;20461;-66
2021/04/28 09:50:36;;;;;;;16.27;14.60;;;26.10;44.30;;;;;;5006628;28;20945;-66
2021/04/28 09:53:02;;;;;;;15.40;13.80;;;25.10;44.80;;;;;;5011657;28;20437;-66
2021/04/28 09:55:27;;;;;;;13.97;12.63;;;25.90;44.50;;;;;;5008094;28;20171;-67
2021/04/28 09:57:53;;;;;;;15.10;12.40;;;26.90;42.90;;;;;;5011614;28;20193;-66
2021/04/28 10:00:23;;;;;;;16.17;13.73;;;27.40;41.30;;;;;;5006629;28;20186;-66
2021/04/28 10:03:01;;;;;;;14.43;12.07;;;27.90;41.00;;;;;;5005441;28;20252;-66
2021/04/28 10:05:33;;;;;;;15.23;13.73;;;28.30;39.80;;;;;;5008126;28;20487;-66
2021/04/28 10:08:12;;;;;;;17.00;14.40;;;28.70;39.00;;;;;;5002523;28;20445;-66
2021/04/28 10:10:42;;;;;;;12.40;11.23;;;29.00;37.50;;;;;;5005029;28;20434;-66
2021/04/28 10:13:07;;;;;;;12.30;11.20;;;30.20;36.20;;;;;;5005887;28;20435;-66
2021/04/28 10:15:34;;;;;;;13.23;12.03;;;30.60;33.50;;;;;;5002348;28;20507;-66
2021/04/28 10:18:05;;;;;;;14.00;12.50;;;31.30;33.20;;;;;;5009346;28;20179;-66
2021/04/28 10:20:35;;;;;;;13.80;11.63;;;30.00;32.80;;;;;;4995405;28;20433;-66
2021/04/28 10:23:12;;;;;;;11.67;10.73;;;29.50;32.90;;;;;;5006857;28;20441;-66
2021/04/28 10:25:39;;;;;;;12.70;11.50;;;29.30;34.80;;;;;;5003133;28;20496;-67
2021/04/28 10:28:07;;;;;;;11.93;10.83;;;30.00;32.90;;;;;;5009879;28;20441;-66
2021/04/28 10:30:42;;;;;;;13.63;12.53;;;30.20;32.30;;;;;;4999951;28;20441;-67
2021/04/28 10:33:12;;;;;;;13.47;12.20;;;31.20;31.70;;;;;;5003698;28;21142;-68
2021/04/28 10:35:38;;;;;;;11.07;9.93;;;32.30;30.00;;;;;;5008661;28;20462;-66
2021/04/28 10:38:04;;;;;;;12.63;9.93;;;31.00;30.00;;;;;;5010965;28;20521;-66
2021/04/28 10:40:29;;;;;;;11.07;10.03;;;31.00;29.20;;;;;;5008016;28;20528;-66
2021/04/28 10:43:10;;;;;;;9.30;8.43;;;30.20;29.20;;;;;;5010822;28;20349;-66
2021/04/28 10:45:39;;;;;;;9.30;7.93;;;30.10;28.90;;;;;;5012080;28;20206;-65
2021/04/28 10:48:10;;;;;;;8.80;8.10;;;30.30;27.40;;;;;;5011290;28;20441;-66
2021/04/28 10:50:40;;;;;;;9.73;8.83;;;29.60;28.00;;;;;;5007658;28;20434;-66
2021/04/28 10:53:20;;;;;;;8.80;8.00;;;30.80;28.10;;;;;;5011986;28;20945;-66
2021/04/28 10:56:05;;;;;;;9.23;8.33;;;32.50;26.90;;;;;;5011407;28;20463;-66
2021/04/28 10:58:34;;;;;;;9.53;8.73;;;32.80;27.00;;;;;;5010049;28;20430;-66
2021/04/28 11:00:59;;;;;;;9.93;9.03;;;34.00;26.60;;;;;;5007496;28;20552;-67
2021/04/28 11:03:40;;;;;;;10.70;9.80;;;35.20;26.40;;;;;;5011588;28;20516;-67
2021/04/28 11:08:49;;;;;;;10.93;10.00;;;33.30;27.20;;;;;;5011231;28;20860;-67
2021/04/28 11:11:38;;;;;;;11.17;10.10;;;32.50;27.40;;;;;;5007619;28;20452;-67
2021/04/28 11:14:19;;;;;;;10.70;9.70;;;34.50;26.80;;;;;;5011093;28;20438;-67
2021/04/28 11:16:48;;;;;;;10.60;9.73;;;35.50;25.60;;;;;;5011303;28;20430;-67
2021/04/28 11:19:20;;;;;;;10.90;9.87;;;36.30;25.50;;;;;;5010701;28;20473;-67
2021/04/28 11:22:06;;;;;;;9.27;8.20;;;37.50;25.50;;;;;;5006278;28;20449;-67
2021/04/28 11:24:52;;;;;;;10.37;9.53;;;37.00;24.60;;;;;;5010438;28;20560;-67
2021/04/28 11:27:42;;;;;;;10.90;9.90;;;37.80;24.70;;;;;;5010629;28;20464;-67
2021/04/28 11:30:24;;;;;;;12.00;11.00;;;38.00;24.40;;;;;;5006436;28;20429;-67
2021/04/28 11:33:30;;;;;;;6.73;6.17;;;37.80;24.50;;;;;;5008730;28;21040;-67
2021/04/28 11:35:56;;;;;;;4.63;4.13;;;37.60;22.60;;;;;;5011263;28;20438;-66
2021/04/28 11:38:25;;;;;;;5.20;4.77;;;33.80;23.50;;;;;;5010675;28;20521;-66
2021/04/28 11:41:08;;;;;;;6.50;5.33;;;32.40;23.80;;;;;;5000613;28;20210;-66
2021/04/28 11:43:35;;;;;;;5.53;5.03;;;31.60;24.00;;;;;;5004589;28;20429;-66
2021/04/28 11:46:16;;;;;;;4.80;4.50;;;31.40;24.30;;;;;;5010827;28;20982;-66
2021/04/28 11:48:44;;;;;;;6.23;4.80;;;32.00;24.20;;;;;;5010848;28;20963;-66
2021/04/28 11:51:12;;;;;;;5.90;5.50;;;34.40;24.30;;;;;;5006871;28;20449;-66
2021/04/28 11:53:40;;;;;;;5.97;5.47;;;34.70;23.10;;;;;;5010459;28;20453;-66
2021/04/28 11:56:06;;;;;;;5.90;5.50;;;34.20;23.40;;;;;;5010252;28;20931;-66
2021/04/28 11:58:32;;;;;;;7.60;5.83;;;30.90;24.00;;;;;;5010533;28;20437;-66
2021/04/28 12:01:07;;;;;;;5.67;5.17;;;31.90;24.50;;;;;;5001719;28;20788;-66
2021/04/28 12:04:05;;;;;;;7.60;5.97;;;33.10;24.50;;;;;;5010127;28;21352;-66
2021/04/28 12:06:33;;;;;;;7.53;6.17;;;30.80;24.40;;;;;;5001441;28;20894;-66
2021/04/28 12:09:09;;;;;;;7.50;5.50;;;29.00;26.50;;;;;;5010103;28;20422;-66
2021/04/28 12:11:37;;;;;;;5.87;5.00;;;29.70;26.50;;;;;;5006747;28;20500;-66
2021/04/28 12:14:03;;;;;;;6.73;5.87;;;31.50;26.00;;;;;;5010318;28;20472;-66
2021/04/28 12:16:28;;;;;;;11.03;10.03;;;33.30;25.10;;;;;;5010405;28;20465;-66
2021/04/28 12:19:27;;;;;;;10.27;9.47;;;34.50;25.10;;;;;;5010379;28;20244;-66
2021/04/28 12:22:04;;;;;;;9.33;8.53;;;36.90;24.30;;;;;;4995734;28;20215;-66
2021/04/28 12:24:33;;;;;;;10.30;9.40;;;39.50;23.40;;;;;;5008989;28;21180;-65
2021/04/28 12:27:14;;;;;;;9.67;8.80;;;39.30;23.60;;;;;;5010804;28;20457;-66
2021/04/28 12:29:46;;;;;;;10.27;9.57;;;39.30;23.50;;;;;;5007162;28;20429;-69
2021/04/28 12:32:11;;;;;;;8.87;7.97;;;39.90;23.30;;;;;;5006855;28;20468;-66
2021/04/28 12:34:39;;;;;;;10.60;8.77;;;41.20;23.00;;;;;;5009915;28;20517;-66
2021/04/28 12:37:14;;;;;;;11.30;10.30;;;41.20;22.50;;;;;;5009856;28;20182;-66
2021/04/28 12:39:40;;;;;;;11.43;10.00;;;39.10;22.50;;;;;;5008198;28;20429;-66
2021/04/28 12:42:06;;;;;;;9.97;9.13;;;37.80;23.20;;;;;;5007857;28;20457;-66
2021/04/28 12:44:35;;;;;;;9.60;8.70;;;38.40;23.20;;;;;;5009609;28;20468;-66